LEIB Airport Information

Runway Information
Runway 06 Length 9186 ft width 148 ft
Elevation 13 ft Threshold ft Heading 62
Runway 24 Length 9186 ft Width 148 ft
Elevation 16 ft Threshold ft Heading 242
Airport Frequencies
Type APP Name PALMA APP Frequency 118.125 MHZ
Type APP Name APP Frequency 119.8 MHZ
Type ATIS Name ATIS Frequency 117.8 MHZ
Type GND Name GND Frequency 121.8 MHZ
Type TWR Name TWR Frequency 118.5 MHZ
Airport Navaids
Type VOR-DME Name Ibiza Frequency 117800 KHZ
Type NDB Name Ibiza Frequency 394 KHZ
Airport Weather Information & NOTAM
ADDS - METARS form results

(2338 UTC 22 September 2022)
Data provider http://aviationweather.gov/metar/data/
 
METAR text: LEIB 222330Z 00000KT CAVOK 21/18 Q1018 NOSIG
Conditions at: LEIB (IBIZA/ES CODOLA , ES) observed 2330 UTC 22 September 2022
Temperature: 21.0°C (70°F)
Dewpoint: 18.0°C (64°F) [RH = 83%]
Pressure (altimeter): 30.06 inches Hg (1018.0 mb)
Winds: calm
Visibility: 6 or more miles (10+ km)
Ceiling: ceiling and visibility are OK
Clouds: unknown
Weather: no significant weather observed at this time

METAR text: LEIB 222300Z 00000KT CAVOK 20/18 Q1018 NOSIG
Conditions at: LEIB (IBIZA/ES CODOLA , ES) observed 2300 UTC 22 September 2022
Temperature: 20.0°C (68°F)
Dewpoint: 18.0°C (64°F) [RH = 88%]
Pressure (altimeter): 30.06 inches Hg (1018.0 mb)
Winds: calm
Visibility: 6 or more miles (10+ km)
Ceiling: ceiling and visibility are OK
Clouds: unknown
Weather: no significant weather observed at this time

Forecast for: LEIB (IBIZA/ES CODOLA , ES)
Text: TAF LEIB 222000Z 2221/2321 30005KT 9999 FEW020 TX27/2312Z TN20/2305Z
Forecast period: 2100 UTC 22 September 2022 to 0700 UTC 23 September 2022
Forecast type: FROM: standard forecast or significant change
Winds: from the WNW (300 degrees) at 6 MPH (5 knots; 2.6 m/s)
Visibility: 6 or more miles (10+ km)
Ceiling: at least 12,000 feet AGL
Clouds: few clouds at 2000 feet AGL
Weather: no significant weather forecast for this period
Text: BECMG 2307/2309 15010KT
Forecast period: 0700 to 2100 UTC 23 September 2022
Forecast type: BECOMING: Conditions expected to become as follows by 0900 UTC 23 September 2022
Winds: from the SSE (150 degrees) at 12 MPH (10 knots; 5.1 m/s)
Visibility: 6 or more miles (10+ km)
Ceiling: at least 12,000 feet AGL
Clouds: few clouds at 2000 feet AGL
Weather: no significant weather forecast for this period